createdAt,value
2017-11-24T00:02:17.110Z,13.02
2017-11-24T00:04:44.580Z,13.28
2017-11-24T00:07:12.035Z,12.97
2017-11-24T00:09:39.513Z,13.09
2017-11-24T00:12:06.959Z,13.06
2017-11-24T00:14:34.439Z,13.05
2017-11-24T00:17:01.881Z,13.14
2017-11-24T00:19:29.339Z,13.02
2017-11-24T00:21:56.774Z,12.98
2017-11-24T00:24:24.242Z,12.88
2017-11-24T00:26:51.788Z,12.66
2017-11-24T00:29:19.254Z,12.60
2017-11-24T00:31:46.719Z,12.77
2017-11-24T00:34:14.158Z,12.89
2017-11-24T00:36:41.620Z,12.92
2017-11-24T00:39:09.053Z,12.88
2017-11-24T00:41:36.519Z,12.83
2017-11-24T00:44:03.968Z,12.98
2017-11-24T00:46:31.567Z,12.87
2017-11-24T00:48:58.998Z,12.99
2017-11-24T00:51:26.474Z,12.86
2017-11-24T00:53:53.912Z,12.93
2017-11-24T00:56:21.378Z,12.92
2017-11-24T00:58:48.820Z,12.98
2017-11-24T01:01:16.282Z,13.02
2017-11-24T01:03:43.731Z,13.01
2017-11-24T01:06:11.187Z,12.91
2017-11-24T01:08:38.775Z,12.87
2017-11-24T01:11:06.217Z,12.69
2017-11-24T01:13:33.666Z,12.67
2017-11-24T01:16:01.100Z,12.76
2017-11-24T01:18:28.556Z,12.80
2017-11-24T01:20:55.997Z,12.64
2017-11-24T01:23:23.501Z,12.67
2017-11-24T01:25:50.951Z,12.67
2017-11-24T01:28:18.493Z,12.60
2017-11-24T01:30:45.963Z,12.66
2017-11-24T01:33:13.422Z,12.62
2017-11-24T01:35:40.864Z,12.62
2017-11-24T01:38:08.326Z,12.62
2017-11-24T01:40:40.860Z,12.51
2017-11-24T01:43:08.329Z,12.53
2017-11-24T01:45:35.795Z,12.42
2017-11-24T01:48:03.242Z,12.38
2017-11-24T01:50:31.231Z,12.26
2017-11-24T01:52:58.688Z,12.36
2017-11-24T01:55:26.152Z,12.35
2017-11-24T01:57:53.606Z,12.34
2017-11-24T02:00:21.193Z,12.35
2017-11-24T02:02:48.638Z,12.37
2017-11-24T02:05:16.089Z,12.32
2017-11-24T02:07:43.568Z,12.39
2017-11-24T02:10:11.045Z,12.50
2017-11-24T02:12:38.578Z,12.55
2017-11-24T02:15:06.062Z,12.49
2017-11-24T02:17:33.514Z,12.50
2017-11-24T02:20:00.967Z,12.33
2017-11-24T02:22:28.413Z,12.33
2017-11-24T02:24:55.870Z,12.42
2017-11-24T02:27:23.317Z,12.53
2017-11-24T02:29:50.805Z,12.38
2017-11-24T02:32:18.240Z,12.44
2017-11-24T02:34:45.675Z,12.53
2017-11-24T02:37:13.161Z,12.60
2017-11-24T02:39:40.683Z,12.44
2017-11-24T02:42:08.238Z,12.57
2017-11-24T02:44:35.720Z,12.65
2017-11-24T02:47:03.225Z,12.63
2017-11-24T02:49:30.671Z,12.64
2017-11-24T02:51:58.136Z,12.68
2017-11-24T02:54:25.652Z,12.51
2017-11-24T02:56:53.099Z,12.58
2017-11-24T02:59:20.529Z,12.58
2017-11-24T03:01:48.027Z,12.62
2017-11-24T03:04:15.481Z,12.36
2017-11-24T03:06:42.956Z,12.33
2017-11-24T03:09:10.410Z,12.33
2017-11-24T03:11:37.860Z,12.25
2017-11-24T03:14:05.335Z,12.31
2017-11-24T03:16:32.763Z,12.37
2017-11-24T03:19:00.237Z,12.42
2017-11-24T03:21:27.756Z,12.20
2017-11-24T03:23:55.228Z,12.22
2017-11-24T03:26:22.666Z,12.21
2017-11-24T03:28:50.151Z,12.24
2017-11-24T03:31:17.591Z,12.33
2017-11-24T03:33:45.140Z,12.36
2017-11-24T03:36:12.597Z,12.54
2017-11-24T03:38:40.051Z,12.51
2017-11-24T03:41:07.498Z,12.35
2017-11-24T03:43:34.957Z,12.23
2017-11-24T03:46:02.421Z,12.35
2017-11-24T03:48:29.893Z,12.24
2017-11-24T03:50:57.330Z,12.39
2017-11-24T03:53:24.774Z,12.25
2017-11-24T03:55:52.234Z,12.39
2017-11-24T03:58:19.694Z,12.29
2017-11-24T04:00:47.255Z,12.29
2017-11-24T04:03:14.709Z,12.22
2017-11-24T04:05:42.172Z,12.21
2017-11-24T04:08:09.607Z,12.29
2017-11-24T04:10:37.059Z,12.36
2017-11-24T04:13:04.513Z,12.30
2017-11-24T04:15:31.998Z,12.29
2017-11-24T04:17:59.434Z,12.34
2017-11-24T04:20:26.956Z,12.17
2017-11-24T04:22:54.400Z,12.14
2017-11-24T04:25:21.852Z,12.21
2017-11-24T04:27:49.324Z,12.23
2017-11-24T04:30:16.817Z,12.28
2017-11-24T04:32:44.291Z,12.38
2017-11-24T04:35:11.733Z,12.31
2017-11-24T04:37:39.222Z,12.40
2017-11-24T04:40:06.651Z,12.48
2017-11-24T04:42:34.105Z,12.45
2017-11-24T04:45:01.537Z,12.33
2017-11-24T04:47:29.004Z,12.44
2017-11-24T04:49:56.486Z,12.56
2017-11-24T04:52:23.939Z,12.62
2017-11-24T04:54:51.393Z,12.62
2017-11-24T04:57:18.871Z,12.53
2017-11-24T04:59:46.309Z,12.69
2017-11-24T05:02:13.769Z,12.70
2017-11-24T05:04:41.217Z,12.76
2017-11-24T05:07:08.694Z,12.72
2017-11-24T05:09:36.220Z,12.70
2017-11-24T05:12:03.666Z,12.70
2017-11-24T05:14:31.180Z,12.58
2017-11-24T05:16:58.740Z,12.61
2017-11-24T05:19:26.284Z,12.48
2017-11-24T05:21:53.733Z,12.44
2017-11-24T05:24:21.302Z,12.52
2017-11-24T05:26:48.739Z,12.50
2017-11-24T05:29:16.221Z,12.77
2017-11-24T05:31:43.672Z,12.61
2017-11-24T05:34:11.133Z,12.60
2017-11-24T05:36:38.589Z,12.52
2017-11-24T05:39:06.135Z,12.45
2017-11-24T05:41:33.583Z,12.22
2017-11-24T05:44:01.156Z,12.17
2017-11-24T05:46:28.602Z,12.06
2017-11-24T05:48:56.052Z,11.96
2017-11-24T05:51:23.506Z,12.10
2017-11-24T05:53:50.938Z,12.18
2017-11-24T05:56:18.388Z,12.09
2017-11-24T05:58:45.835Z,11.95
2017-11-24T06:01:13.303Z,12.14
2017-11-24T06:03:40.769Z,12.23
2017-11-24T06:06:08.255Z,12.44
2017-11-24T06:08:35.713Z,12.46
2017-11-24T06:11:03.182Z,12.37
2017-11-24T06:13:30.610Z,12.57
2017-11-24T06:15:58.082Z,12.46
2017-11-24T06:18:25.529Z,12.54
2017-11-24T06:20:53.009Z,12.60
2017-11-24T06:23:20.464Z,12.71
2017-11-24T06:25:48.075Z,12.86
2017-11-24T06:28:15.521Z,12.69
2017-11-24T06:30:42.969Z,12.70
2017-11-24T06:33:10.451Z,12.77
2017-11-24T06:35:37.912Z,12.77
2017-11-24T06:38:05.406Z,12.69
2017-11-24T06:40:32.850Z,12.52
2017-11-24T06:43:00.333Z,12.53
2017-11-24T06:45:27.766Z,12.57
2017-11-24T06:47:55.227Z,12.63
2017-11-24T06:50:22.666Z,12.54
2017-11-24T06:52:50.161Z,12.51
2017-11-24T06:55:17.613Z,12.46
2017-11-24T06:57:45.085Z,12.55
2017-11-24T07:00:12.538Z,12.70
2017-11-24T07:02:39.989Z,12.72
2017-11-24T07:05:07.458Z,12.72
2017-11-24T07:07:34.986Z,12.63
2017-11-24T07:10:02.453Z,12.60
2017-11-24T07:12:29.932Z,12.64
2017-11-24T07:14:57.429Z,12.69
2017-11-24T07:17:24.892Z,12.88
2017-11-24T07:19:52.382Z,12.81
2017-11-24T07:22:19.843Z,12.60
2017-11-24T07:24:47.276Z,12.84
2017-11-24T07:27:14.788Z,12.89
2017-11-24T07:29:42.244Z,12.68
2017-11-24T07:32:09.732Z,12.80
2017-11-24T07:34:37.267Z,12.96
2017-11-24T07:37:04.737Z,12.88
2017-11-24T07:39:32.180Z,12.92
2017-11-24T07:41:59.685Z,12.94
2017-11-24T07:44:27.605Z,12.90
2017-11-24T07:46:55.137Z,12.89
2017-11-24T07:49:22.581Z,12.71
2017-11-24T07:51:50.124Z,12.79
2017-11-24T07:54:17.594Z,12.90
2017-11-24T07:56:45.087Z,12.93
2017-11-24T07:59:12.537Z,12.81
2017-11-24T08:01:39.994Z,12.91
2017-11-24T08:04:07.510Z,12.96
2017-11-24T08:06:34.942Z,13.18
2017-11-24T08:09:02.423Z,13.34
2017-11-24T08:11:29.986Z,13.22
2017-11-24T08:13:57.526Z,13.14
2017-11-24T08:16:24.972Z,13.09
2017-11-24T08:18:52.427Z,13.10
2017-11-24T08:21:19.914Z,13.12
2017-11-24T08:23:47.375Z,13.13
2017-11-24T08:26:14.837Z,13.32
2017-11-24T08:28:42.297Z,13.41
2017-11-24T08:31:09.745Z,13.25
2017-11-24T08:33:37.313Z,13.29
2017-11-24T08:36:04.841Z,13.24
2017-11-24T08:38:32.307Z,13.26
2017-11-24T08:40:59.768Z,13.10
2017-11-24T08:43:27.201Z,13.18
2017-11-24T08:45:54.679Z,13.28
2017-11-24T08:48:27.857Z,13.20
2017-11-24T08:50:55.336Z,13.27
2017-11-24T08:53:22.796Z,13.15
2017-11-24T08:55:50.254Z,13.40
2017-11-24T08:58:17.813Z,13.28
2017-11-24T09:00:45.288Z,13.15
2017-11-24T09:03:12.734Z,13.35
2017-11-24T09:05:40.204Z,13.36
2017-11-24T09:08:07.643Z,13.41
2017-11-24T09:10:35.127Z,13.23
2017-11-24T09:13:02.601Z,13.29
2017-11-24T09:15:30.065Z,13.34
2017-11-24T09:17:57.532Z,13.51
2017-11-24T09:20:24.961Z,13.70
2017-11-24T09:22:52.420Z,13.63
2017-11-24T09:25:19.896Z,13.56
2017-11-24T09:27:47.347Z,13.68
2017-11-24T09:30:14.779Z,13.77
2017-11-24T09:32:42.249Z,13.88
2017-11-24T09:35:09.730Z,13.78
2017-11-24T09:37:37.187Z,13.86
2017-11-24T09:40:04.632Z,13.87
2017-11-24T09:42:32.125Z,14.19
2017-11-24T09:44:59.583Z,14.05
2017-11-24T09:47:27.035Z,14.06
2017-11-24T09:49:54.494Z,14.02
2017-11-24T09:52:21.922Z,14.12
2017-11-24T09:54:49.374Z,13.97
2017-11-24T09:57:16.805Z,13.88
2017-11-24T09:59:44.314Z,14.14
2017-11-24T10:02:11.756Z,14.24
2017-11-24T10:04:39.325Z,14.09
2017-11-24T10:07:06.821Z,14.18
2017-11-24T10:09:34.336Z,14.19
2017-11-24T10:12:01.782Z,14.29
2017-11-24T10:14:29.410Z,14.30
2017-11-24T10:16:56.845Z,14.39
2017-11-24T10:19:24.355Z,14.45
2017-11-24T10:21:57.278Z,14.16
2017-11-24T10:24:24.798Z,14.12
2017-11-24T10:26:52.268Z,14.13
2017-11-24T10:29:19.743Z,14.16
2017-11-24T10:31:48.187Z,14.20
2017-11-24T10:34:15.673Z,14.08
2017-11-24T10:36:43.151Z,14.09
2017-11-24T10:39:10.610Z,14.20
2017-11-24T10:41:38.078Z,14.12
2017-11-24T10:44:05.524Z,14.13
2017-11-24T10:46:33.002Z,14.04
2017-11-24T10:49:00.445Z,14.21
2017-11-24T10:51:27.898Z,14.11
2017-11-24T10:53:55.369Z,14.00
2017-11-24T10:56:22.818Z,13.91
2017-11-24T10:58:50.334Z,13.89
2017-11-24T11:01:17.875Z,13.94
2017-11-24T11:03:45.339Z,13.92
2017-11-24T11:06:12.813Z,13.94
2017-11-24T11:08:40.282Z,13.97
2017-11-24T11:11:07.733Z,14.14
2017-11-24T11:13:35.203Z,14.15
2017-11-24T11:16:02.732Z,14.38
2017-11-24T11:18:30.202Z,14.35
2017-11-24T11:20:57.645Z,14.31
2017-11-24T11:23:25.086Z,14.14
2017-11-24T11:25:52.568Z,14.24
2017-11-24T11:28:20.059Z,14.10
2017-11-24T11:30:47.537Z,14.27
2017-11-24T11:33:14.982Z,14.22
2017-11-24T11:35:42.448Z,14.13
2017-11-24T11:38:09.948Z,14.11
2017-11-24T11:40:37.416Z,14.14
2017-11-24T11:43:04.858Z,14.22
2017-11-24T11:45:32.343Z,14.24
2017-11-24T11:47:59.868Z,14.38
2017-11-24T11:50:27.395Z,14.37
2017-11-24T11:52:54.828Z,14.29
2017-11-24T11:55:22.312Z,14.22
2017-11-24T11:57:49.819Z,14.23
2017-11-24T12:00:17.221Z,14.29
2017-11-24T12:02:44.815Z,14.03
2017-11-24T12:05:12.273Z,14.08
2017-11-24T12:07:39.845Z,14.08
2017-11-24T12:10:07.289Z,14.08
2017-11-24T12:12:34.770Z,14.17
2017-11-24T12:15:02.224Z,14.15
2017-11-24T12:17:29.777Z,14.15
2017-11-24T12:19:57.222Z,14.27
2017-11-24T12:22:24.689Z,14.28
2017-11-24T12:24:52.150Z,14.06
2017-11-24T12:27:19.600Z,14.08
2017-11-24T12:29:47.069Z,14.18
2017-11-24T12:32:14.600Z,14.22
2017-11-24T12:34:42.083Z,14.14
2017-11-24T12:37:09.513Z,14.15
2017-11-24T12:39:37.068Z,14.26
2017-11-24T12:42:04.544Z,14.34
2017-11-24T12:44:32.073Z,14.38
2017-11-24T12:46:59.511Z,14.29
2017-11-24T12:49:26.993Z,14.36
2017-11-24T12:51:54.469Z,14.28
2017-11-24T12:54:21.910Z,14.27
2017-11-24T12:56:49.457Z,14.20
2017-11-24T12:59:16.896Z,14.24
2017-11-24T13:01:44.380Z,14.31
2017-11-24T13:04:11.813Z,14.31
2017-11-24T13:06:39.294Z,14.11
2017-11-24T13:09:06.749Z,14.15
2017-11-24T13:11:34.246Z,14.13
2017-11-24T13:14:01.705Z,14.17
2017-11-24T13:16:29.175Z,14.29
2017-11-24T13:18:56.683Z,14.31
2017-11-24T13:21:24.146Z,14.42
2017-11-24T13:23:51.578Z,14.15
2017-11-24T13:26:19.015Z,14.13
2017-11-24T13:28:46.514Z,14.14
2017-11-24T13:31:13.946Z,14.00
2017-11-24T13:33:41.526Z,13.97
2017-11-24T13:36:08.971Z,13.90
2017-11-24T13:38:36.438Z,13.89
2017-11-24T13:41:03.876Z,13.87
2017-11-24T13:43:31.336Z,13.81
2017-11-24T13:45:58.771Z,13.88
2017-11-24T13:48:26.253Z,13.84
2017-11-24T13:50:53.810Z,13.74
2017-11-24T13:53:21.305Z,13.84
2017-11-24T13:55:48.860Z,13.72
2017-11-24T13:58:16.332Z,13.68
2017-11-24T14:00:43.775Z,13.78
2017-11-24T14:03:11.257Z,13.78
2017-11-24T14:05:38.687Z,13.75
2017-11-24T14:08:06.129Z,13.81
2017-11-24T14:10:33.602Z,13.76
2017-11-24T14:13:01.051Z,13.75
2017-11-24T14:15:28.514Z,13.63
2017-11-24T14:17:55.968Z,13.53
2017-11-24T14:20:23.484Z,13.57
2017-11-24T14:22:50.915Z,13.57
2017-11-24T14:25:18.369Z,13.59
2017-11-24T14:27:45.807Z,13.67
2017-11-24T14:30:13.254Z,13.72
2017-11-24T14:32:40.685Z,13.73
2017-11-24T14:35:08.151Z,13.62
2017-11-24T14:37:35.654Z,13.56
2017-11-24T14:40:03.134Z,13.80
2017-11-24T14:42:30.598Z,13.75
2017-11-24T14:44:58.034Z,13.61
2017-11-24T14:47:25.525Z,13.58
2017-11-24T14:49:52.962Z,13.63
2017-11-24T14:52:20.545Z,13.52
2017-11-24T14:54:48.004Z,13.54
2017-11-24T14:57:15.484Z,13.53
2017-11-24T14:59:42.942Z,13.41
2017-11-24T15:02:10.425Z,13.53
2017-11-24T15:04:37.925Z,13.46
2017-11-24T15:07:05.397Z,13.76
2017-11-24T15:09:32.872Z,13.62
2017-11-24T15:12:00.310Z,13.75
2017-11-24T15:14:27.835Z,13.68
2017-11-24T15:16:55.267Z,13.55
2017-11-24T15:19:22.752Z,13.19
2017-11-24T15:21:50.248Z,13.17
2017-11-24T15:24:17.706Z,12.58
2017-11-24T15:26:45.164Z,12.40
2017-11-24T15:29:12.646Z,12.35
2017-11-24T15:31:40.129Z,12.39
2017-11-24T15:34:07.579Z,12.14
2017-11-24T15:36:35.039Z,12.04
2017-11-24T15:39:02.488Z,11.95
2017-11-24T15:41:29.940Z,12.08
2017-11-24T15:43:57.387Z,12.13
2017-11-24T15:46:24.857Z,12.37
2017-11-24T15:48:52.291Z,12.31
2017-11-24T15:51:19.743Z,12.20
2017-11-24T15:53:47.170Z,12.36
2017-11-24T15:56:14.712Z,12.26
2017-11-24T15:58:42.172Z,12.19
2017-11-24T16:01:09.683Z,12.30
2017-11-24T16:03:37.128Z,12.24
2017-11-24T16:06:04.634Z,12.22
2017-11-24T16:08:32.104Z,12.22
2017-11-24T16:10:59.659Z,12.35
2017-11-24T16:13:27.173Z,12.19
2017-11-24T16:15:54.630Z,12.22
2017-11-24T16:18:22.098Z,12.04
2017-11-24T16:20:49.530Z,12.20
2017-11-24T16:23:17.008Z,12.26
2017-11-24T16:25:44.491Z,12.30
2017-11-24T16:28:11.946Z,12.61
2017-11-24T16:30:39.433Z,12.14
2017-11-24T16:33:06.883Z,12.02
2017-11-24T16:35:34.492Z,12.14
2017-11-24T16:38:01.950Z,12.33
2017-11-24T16:40:29.457Z,11.78
2017-11-24T16:42:57.005Z,11.72
2017-11-24T16:45:24.564Z,11.79
2017-11-24T16:47:52.015Z,11.92
2017-11-24T16:50:19.498Z,11.76
2017-11-24T16:52:46.944Z,11.72
2017-11-24T16:55:14.388Z,11.54
2017-11-24T16:57:41.938Z,11.38
2017-11-24T17:00:09.403Z,11.42
2017-11-24T17:02:36.900Z,11.45
2017-11-24T17:05:04.331Z,11.65
2017-11-24T17:07:31.867Z,11.65
2017-11-24T17:09:59.314Z,11.46
2017-11-24T17:12:27.638Z,11.18
2017-11-24T17:14:55.102Z,11.40
2017-11-24T17:17:22.601Z,11.44
2017-11-24T17:19:50.091Z,11.36
2017-11-24T17:22:17.582Z,11.55
2017-11-24T17:24:45.145Z,11.90
2017-11-24T17:27:12.681Z,11.55
2017-11-24T17:29:40.151Z,11.57
2017-11-24T17:32:07.597Z,11.61
2017-11-24T17:34:35.118Z,11.31
2017-11-24T17:37:02.556Z,11.42
2017-11-24T17:39:30.013Z,11.72
2017-11-24T17:41:57.499Z,11.14
2017-11-24T17:44:24.961Z,11.55
2017-11-24T17:46:52.422Z,11.37
2017-11-24T17:49:20.069Z,11.26
2017-11-24T17:51:47.505Z,11.26
2017-11-24T17:54:15.004Z,11.26
2017-11-24T17:56:42.452Z,11.22
2017-11-24T17:59:09.996Z,11.03
2017-11-24T18:01:37.434Z,10.96
2017-11-24T18:04:04.911Z,11.01
2017-11-24T18:06:32.373Z,10.90
2017-11-24T18:08:59.838Z,10.81
2017-11-24T18:11:27.311Z,10.68
2017-11-24T18:13:54.747Z,10.88
2017-11-24T18:16:22.226Z,10.97
2017-11-24T18:18:49.700Z,10.80
2017-11-24T18:21:17.156Z,10.74
2017-11-24T18:23:44.616Z,10.73
2017-11-24T18:26:12.164Z,10.80
2017-11-24T18:28:39.625Z,10.78
2017-11-24T18:31:07.106Z,10.64
2017-11-24T18:33:34.581Z,10.69
2017-11-24T18:36:02.060Z,10.72
2017-11-24T18:38:29.505Z,10.71
2017-11-24T18:40:56.953Z,10.73
2017-11-24T18:43:24.425Z,10.91
2017-11-24T18:45:51.873Z,10.87
2017-11-24T18:48:19.347Z,10.83
2017-11-24T18:50:46.807Z,10.97
2017-11-24T18:53:14.307Z,10.91
2017-11-24T18:55:41.780Z,10.78
2017-11-24T18:58:09.237Z,10.98
2017-11-24T19:00:36.669Z,10.81
2017-11-24T19:03:04.157Z,10.56
2017-11-24T19:05:32.428Z,10.67
2017-11-24T19:07:59.992Z,10.74
2017-11-24T19:10:27.775Z,10.83
2017-11-24T19:12:55.330Z,10.68
2017-11-24T19:15:22.857Z,10.41
2017-11-24T19:17:50.378Z,10.43
2017-11-24T19:20:18.132Z,10.36
2017-11-24T19:22:45.668Z,10.43
2017-11-24T19:25:13.126Z,10.48
2017-11-24T19:27:40.696Z,10.47
2017-11-24T19:30:08.210Z,10.33
2017-11-24T19:32:35.663Z,10.41
2017-11-24T19:35:03.157Z,10.21
2017-11-24T19:37:30.639Z,9.93
2017-11-24T19:39:58.103Z,9.89
2017-11-24T19:42:26.293Z,10.13
2017-11-24T19:44:54.011Z,10.18
2017-11-24T19:47:22.455Z,10.30
2017-11-24T19:49:50.218Z,10.50
2017-11-24T19:52:17.908Z,10.41
2017-11-24T19:54:45.463Z,10.40
2017-11-24T19:57:13.026Z,10.40
2017-11-24T19:59:40.574Z,10.30
2017-11-24T20:02:08.041Z,10.40
2017-11-24T20:04:35.483Z,10.20
2017-11-24T20:07:02.954Z,10.38
2017-11-24T20:09:30.396Z,10.37
2017-11-24T20:11:57.859Z,10.36
2017-11-24T20:14:25.347Z,10.36
2017-11-24T20:16:52.888Z,10.48
2017-11-24T20:19:20.421Z,10.37
2017-11-24T20:21:47.877Z,10.41
2017-11-24T20:24:15.353Z,10.46
2017-11-24T20:26:43.080Z,10.51
2017-11-24T20:29:10.590Z,10.77
2017-11-24T20:31:39.937Z,10.60
2017-11-24T20:34:07.480Z,10.31
2017-11-24T20:36:34.991Z,10.12
2017-11-24T20:39:02.469Z,10.01
2017-11-24T20:41:29.962Z,9.79
2017-11-24T20:43:58.805Z,10.05
2017-11-24T20:46:26.283Z,10.00
2017-11-24T20:48:53.778Z,10.23
2017-11-24T20:51:21.245Z,9.97
2017-11-24T20:53:48.686Z,9.99
2017-11-24T20:56:16.848Z,9.93
2017-11-24T20:58:44.311Z,9.79
2017-11-24T21:01:11.796Z,9.76
2017-11-24T21:03:39.259Z,9.75
2017-11-24T21:06:06.732Z,9.74
2017-11-24T21:08:34.206Z,9.83
2017-11-24T21:11:01.769Z,10.04
2017-11-24T21:13:29.252Z,10.07
2017-11-24T21:15:56.753Z,10.07
2017-11-24T21:18:24.264Z,9.83
2017-11-24T21:20:52.040Z,9.72
2017-11-24T21:23:19.534Z,9.78
2017-11-24T21:25:47.026Z,10.15
2017-11-24T21:28:14.556Z,10.20
2017-11-24T21:30:42.029Z,10.52
2017-11-24T21:33:09.579Z,10.38
2017-11-24T21:35:37.029Z,10.46
2017-11-24T21:38:04.498Z,10.41
2017-11-24T21:40:31.964Z,10.65
2017-11-24T21:42:59.435Z,10.71
2017-11-24T21:45:26.885Z,10.34
2017-11-24T21:47:54.370Z,10.37
2017-11-24T21:50:21.828Z,10.21
2017-11-24T21:52:49.290Z,10.09
2017-11-24T21:55:16.755Z,10.25
2017-11-24T21:57:44.219Z,10.26
2017-11-24T22:00:11.688Z,10.58
2017-11-24T22:02:39.151Z,10.47
2017-11-24T22:05:06.601Z,10.41
2017-11-24T22:07:34.091Z,10.37
2017-11-24T22:10:01.573Z,10.36
2017-11-24T22:12:29.030Z,10.65
2017-11-24T22:14:56.519Z,10.34
2017-11-24T22:17:23.962Z,10.25
2017-11-24T22:19:51.461Z,10.60
2017-11-24T22:22:18.963Z,10.69
2017-11-24T22:24:46.431Z,10.40
2017-11-24T22:27:13.873Z,10.33
2017-11-24T22:29:41.361Z,10.31
2017-11-24T22:32:08.823Z,10.17
2017-11-24T22:34:36.290Z,10.14
2017-11-24T22:37:03.730Z,10.32
2017-11-24T22:39:31.297Z,10.34
2017-11-24T22:41:58.766Z,10.21
2017-11-24T22:44:26.241Z,10.03
2017-11-24T22:46:53.679Z,9.95
2017-11-24T22:49:21.157Z,10.19
2017-11-24T22:51:48.619Z,10.12
2017-11-24T22:54:16.098Z,10.06
2017-11-24T22:56:43.597Z,10.19
2017-11-24T22:59:11.098Z,10.27
2017-11-24T23:01:38.559Z,10.18
2017-11-24T23:04:06.030Z,10.23
2017-11-24T23:06:33.520Z,10.30
2017-11-24T23:09:00.977Z,10.23
2017-11-24T23:11:28.439Z,10.13
2017-11-24T23:13:55.897Z,10.00
2017-11-24T23:16:23.368Z,10.11
2017-11-24T23:18:50.816Z,10.16
2017-11-24T23:21:18.364Z,10.11
2017-11-24T23:23:45.914Z,10.11
2017-11-24T23:26:13.389Z,10.11
2017-11-24T23:28:40.836Z,10.03
2017-11-24T23:31:08.320Z,9.96
2017-11-24T23:33:35.755Z,9.94
2017-11-24T23:36:03.214Z,10.08
2017-11-24T23:38:30.650Z,10.17
2017-11-24T23:40:58.114Z,10.08
2017-11-24T23:43:25.584Z,10.15
2017-11-24T23:45:53.122Z,10.06
2017-11-24T23:48:20.608Z,10.04
2017-11-24T23:50:48.139Z,10.06
2017-11-24T23:53:15.629Z,10.07
2017-11-24T23:55:43.066Z,10.12
2017-11-24T23:58:10.573Z,10.30
